Time;durP1;ratioP1;P1;durP2;ratioP2;P2;SDS_P1;SDS_P2;PMS_P1;PMS_P2;Temp;Humidity;BMP_temperature;BMP_pressure;BME280_temperature;BME280_humidity;BME280_pressure;Samples;Min_cycle;Max_cycle;Signal;HPM_P1;HPM_P2
2021/01/04 00:00:50;;;;;;;37.57;16.60;;;;;;;1.01;88.79;100774.70;5190645;56;1138465;-90
2021/01/04 00:06:06;;;;;;;13.87;7.33;;;;;;;0.97;88.68;100778.31;5181888;56;1138255;-90
2021/01/04 00:11:23;;;;;;;13.43;7.97;;;;;;;0.92;88.68;100770.64;5194897;56;1136493;-91
2021/01/04 00:16:42;;;;;;;35.33;16.37;;;;;;;0.93;88.79;100768.44;5173933;56;1136170;-90
2021/01/04 00:21:58;;;;;;;28.93;14.43;;;;;;;0.95;88.79;100765.34;5191562;56;1138504;-91
2021/01/04 00:27:20;;;;;;;24.30;10.27;;;;;;;0.98;88.87;100766.54;5218261;56;1138699;-91
2021/01/04 00:32:33;;;;;;;25.47;12.63;;;;;;;0.97;88.62;100768.75;5185060;56;1138424;-90
2021/01/04 00:38:01;;;;;;;32.03;13.28;;;;;;;0.96;88.54;100772.70;5180840;56;1138658;-90
2021/01/04 00:43:12;;;;;;;30.97;14.50;;;;;;;0.95;88.62;100771.84;5224632;54;1138315;-89
2021/01/04 00:48:51;;;;;;;26.37;14.70;;;;;;;0.96;88.70;100776.61;5285636;54;1138208;-90
2021/01/04 00:53:58;;;;;;;23.43;13.23;;;;;;;0.94;88.55;100770.59;5296544;54;1138273;-89
2021/01/04 00:59:35;;;;;;;21.77;10.70;;;;;;;0.94;88.44;100770.59;5295626;54;1138421;-89
2021/01/04 01:05:06;;;;;;;22.70;11.20;;;;;;;0.92;88.54;100764.13;5312782;54;1138322;-89
2021/01/04 01:10:13;;;;;;;22.13;12.33;;;;;;;0.93;88.49;100774.09;5289800;54;1138567;-89
2021/01/04 01:15:32;;;;;;;23.67;12.30;;;;;;;0.92;88.57;100772.39;5298357;54;1138409;-89
2021/01/04 01:20:45;;;;;;;16.95;9.10;;;;;;;0.95;88.70;100769.25;5251839;55;1138322;-88
2021/01/04 01:26:07;;;;;;;18.20;9.45;;;;;;;0.96;88.41;100767.04;5291456;54;1136111;-89
2021/01/04 01:31:26;;;;;;;23.90;12.17;;;;;;;0.98;88.44;100776.11;5299476;54;1136385;-89
2021/01/04 01:36:45;;;;;;;17.07;8.37;;;;;;;0.95;88.33;100775.75;5295634;54;1138902;-89
2021/01/04 01:42:10;;;;;;;22.10;13.17;;;;;;;0.93;88.27;100764.98;5289322;54;1136537;-89
2021/01/04 01:47:50;;;;;;;20.68;11.48;;;;;;;0.90;88.30;100763.36;5218766;54;1138702;-91
2021/01/04 01:53:31;;;;;;;17.97;10.37;;;;;;;0.88;88.46;100757.80;5191205;56;1138220;-90
2021/01/04 01:58:50;;;;;;;26.23;12.82;;;;;;;0.89;88.57;100760.36;5235278;56;1138484;-90
2021/01/04 02:04:18;;;;;;;11.87;6.87;;;;;;;0.89;88.41;100761.66;5058851;57;1138284;-91
2021/01/04 02:09:44;;;;;;;21.20;10.47;;;;;;;0.95;88.53;100765.34;5061472;57;1136176;-91
2021/01/04 02:15:11;;;;;;;24.13;12.77;;;;;;;0.95;88.64;100760.58;5060785;57;1138449;-91
2021/01/04 02:21:01;;;;;;;25.30;12.90;;;;;;;0.96;88.51;100768.80;5081004;57;1138345;-90
2021/01/04 02:26:11;;;;;;;29.90;14.45;;;;;;;0.96;88.46;100764.89;5061844;57;1138792;-89
2021/01/04 02:31:17;;;;;;;33.03;15.40;;;;;;;0.93;88.54;100767.14;5039538;56;1139174;-90
2021/01/04 02:36:25;;;;;;;32.90;13.70;;;;;;;0.93;88.60;100768.89;5061149;57;1138545;-90
2021/01/04 02:41:56;;;;;;;30.07;17.00;;;;;;;0.95;88.65;100762.73;5061540;57;1138712;-90
2021/01/04 02:47:30;;;;;;;37.40;16.10;;;;;;;0.94;88.64;100770.14;5229135;54;1138354;-90
2021/01/04 02:53:03;;;;;;;26.12;13.42;;;;;;;0.96;88.60;100761.83;5309003;55;1138348;-89
2021/01/04 02:58:31;;;;;;;28.63;14.67;;;;;;;1.01;88.54;100764.29;5288788;55;1138238;-90
2021/01/04 03:03:39;;;;;;;32.17;16.00;;;;;;;1.05;88.51;100761.98;5280932;54;1138672;-89
2021/01/04 03:08:44;;;;;;;27.67;14.85;;;;;;;1.03;88.49;100768.55;5279856;54;1138894;-90
2021/01/04 03:13:55;;;;;;;23.73;10.67;;;;;;;1.04;88.48;100779.36;5285929;55;1138805;-89
2021/01/04 03:19:09;;;;;;;26.00;14.53;;;;;;;1.04;88.43;100780.67;5295837;55;1138490;-90
2021/01/04 03:24:16;;;;;;;27.60;14.10;;;;;;;1.01;88.37;100778.16;5302484;55;1138816;-90
2021/01/04 03:29:22;;;;;;;19.57;9.57;;;;;;;1.02;88.43;100783.77;5289313;54;1138434;-90
2021/01/04 03:34:28;;;;;;;23.03;11.13;;;;;;;1.01;88.33;100778.61;5302992;54;1136214;-90
2021/01/04 03:39:33;;;;;;;24.20;11.87;;;;;;;1.01;88.34;100778.61;5287563;54;1138293;-91
2021/01/04 03:44:40;;;;;;;19.55;11.93;;;;;;;0.99;88.27;100776.51;5291430;55;1138343;-91
2021/01/04 03:49:46;;;;;;;22.00;11.63;;;;;;;0.99;88.32;100783.02;5291648;54;1138420;-90
2021/01/04 03:54:52;;;;;;;17.83;10.63;;;;;;;1.04;88.21;100787.18;5293342;54;1138409;-90
2021/01/04 03:59:57;;;;;;;20.25;11.55;;;;;;;1.07;88.31;100781.47;5292227;54;1138448;-89
2021/01/04 04:05:07;;;;;;;22.73;12.13;;;;;;;1.03;88.07;100784.17;5326112;54;1138212;-90
2021/01/04 04:10:17;;;;;;;17.70;9.63;;;;;;;1.07;88.12;100778.86;5300576;54;1138735;-90
2021/01/04 04:15:23;;;;;;;20.60;12.20;;;;;;;1.05;88.10;100773.70;5329595;54;1136140;-89
2021/01/04 04:20:28;;;;;;;16.43;9.17;;;;;;;1.05;88.12;100778.47;5303431;54;1138747;-89
2021/01/04 04:25:34;;;;;;;18.10;10.27;;;;;;;1.08;87.95;100780.54;5318705;54;1136178;-89
2021/01/04 04:30:39;;;;;;;20.80;10.70;;;;;;;1.05;88.05;100783.67;5298513;54;1138694;-89
2021/01/04 04:35:45;;;;;;;19.02;8.83;;;;;;;1.03;88.04;100777.66;5300571;54;1138506;-88
2021/01/04 04:40:51;;;;;;;22.77;11.97;;;;;;;1.02;87.94;100778.56;5316080;54;1136575;-89
2021/01/04 04:45:58;;;;;;;23.40;12.07;;;;;;;1.03;87.98;100780.72;5301413;54;1138676;-88
2021/01/04 04:51:30;;;;;;;16.50;9.23;;;;;;;1.07;88.15;100781.47;5298270;54;1138402;-90
2021/01/04 04:56:59;;;;;;;20.50;10.63;;;;;;;1.04;87.90;100778.52;5293258;55;1136237;-89
2021/01/04 05:02:12;;;;;;;28.90;14.20;;;;;;;1.02;88.03;100782.47;5283556;55;1138229;-90
2021/01/04 05:08:02;;;;;;;24.07;11.15;;;;;;;1.01;88.05;100782.07;5288247;55;1138242;-89
2021/01/04 05:13:26;;;;;;;30.17;14.20;;;;;;;0.99;88.04;100780.41;5279510;55;1138219;-89
2021/01/04 05:18:51;;;;;;;34.37;13.90;;;;;;;0.98;88.06;100773.50;5284393;55;1138196;-89
2021/01/04 05:24:34;;;;;;;34.37;15.63;;;;;;;0.95;87.98;100776.20;5278950;54;1138339;-90
2021/01/04 05:30:20;;;;;;;38.70;17.42;;;;;;;0.94;88.30;100779.26;5293930;55;1138670;-90
2021/01/04 05:35:28;;;;;;;36.33;15.90;;;;;;;0.97;88.27;100796.09;5307111;55;1138881;-89
2021/01/04 05:41:14;;;;;;;31.25;14.83;;;;;;;1.01;88.31;100792.48;5299106;54;1138421;-90
2021/01/04 05:46:33;;;;;;;27.13;12.78;;;;;;;0.99;88.34;100805.16;5270313;55;1138272;-90
2021/01/04 05:51:45;;;;;;;34.55;17.23;;;;;;;0.97;88.02;100809.11;5292626;54;1138253;-90
2021/01/04 05:56:51;;;;;;;25.20;11.03;;;;;;;0.94;87.98;100806.60;5286229;55;1138295;-91
2021/01/04 06:02:04;;;;;;;42.83;18.23;;;;;;;0.90;88.00;100801.12;5280559;55;1138329;-90
2021/01/04 06:07:09;;;;;;;;;;;;;;;0.89;88.35;100803.77;5283987;55;1138429;-90
2021/01/04 06:12:22;;;;;;;37.17;17.03;;;;;;;0.93;88.14;100803.59;5297292;55;971586;-89
2021/01/04 06:17:40;;;;;;;39.08;16.55;;;;;;;0.95;88.35;100808.30;5288707;55;1136138;-90
2021/01/04 06:22:48;;;;;;;41.13;18.10;;;;;;;0.96;88.16;100804.80;5288947;55;1138790;-89
2021/01/04 06:27:58;;;;;;;37.47;17.47;;;;;;;0.98;88.12;100799.09;5276300;54;1138331;-89
2021/01/04 06:33:19;;;;;;;45.97;22.10;;;;;;;0.96;88.10;100808.70;5302871;54;1138543;-88
2021/01/04 06:38:31;;;;;;;26.93;14.23;;;;;;;0.97;88.17;100818.22;5280477;55;1138660;-88
2021/01/04 06:43:38;;;;;;;31.90;15.78;;;;;;;0.98;88.17;100821.23;5272469;55;1138309;-88
2021/01/04 06:49:13;;;;;;;33.98;13.18;;;;;;;0.99;88.08;100821.63;5344798;55;1138254;-89
2021/01/04 06:54:45;;;;;;;32.03;15.80;;;;;;;0.97;88.04;100823.87;5277331;55;1138412;-88
2021/01/04 07:00:27;;;;;;;34.73;14.37;;;;;;;1.00;88.17;100813.37;5301012;54;1138394;-88
2021/01/04 07:05:46;;;;;;;37.70;16.90;;;;;;;0.98;88.12;100818.62;5286829;54;1138455;-89
2021/01/04 07:11:32;;;;;;;43.65;17.27;;;;;;;0.96;88.22;100806.55;5280304;55;1138336;-88
2021/01/04 07:17:07;;;;;;;38.33;16.27;;;;;;;0.97;88.17;100806.50;5298103;54;1138575;-88
2021/01/04 07:22:20;;;;;;;39.08;18.77;;;;;;;1.01;88.35;100805.95;5279466;55;1138262;-88
2021/01/04 07:27:50;;;;;;;42.67;19.47;;;;;;;0.97;88.21;100822.12;5324640;55;1138412;-88
2021/01/04 07:33:38;;;;;;;37.80;16.07;;;;;;;0.89;88.10;100809.83;5299178;55;1138238;-89
2021/01/04 07:39:38;;;;;;;19.77;9.50;;;;;;;0.95;88.11;100817.88;5281604;55;1138687;-89
2021/01/04 07:45:34;;;;;;;44.60;22.13;;;;;;;0.93;88.27;100820.52;5390388;55;22109;-90
2021/01/04 07:51:10;;;;;;;90.63;33.70;;;;;;;0.93;88.36;100851.77;5290819;55;1134540;-89
2021/01/04 07:57:06;;;;;;;47.13;22.63;;;;;;;0.93;88.36;100851.77;5226456;54;1138507;-89
2021/01/04 08:03:03;;;;;;;56.53;26.37;;;;;;;1.02;88.63;100859.30;5215784;55;1138745;-89
2021/01/04 08:08:43;;;;;;;36.67;17.53;;;;;;;1.01;88.67;100865.41;5188927;56;1138336;-89
2021/01/04 08:14:31;;;;;;;38.23;16.95;;;;;;;1.01;88.49;100871.06;5164746;55;1138644;-89
2021/01/04 08:19:40;;;;;;;53.10;24.85;;;;;;;1.05;88.55;100876.13;5180958;56;1138568;-89
2021/01/04 08:24:48;;;;;;;30.67;14.63;;;;;;;1.11;88.65;100881.57;5194586;56;1142123;-89
2021/01/04 08:30:26;;;;;;;11.93;7.08;;;;;;;1.12;88.41;100883.73;5158586;56;1138608;-89
2021/01/04 08:35:39;;;;;;;23.70;12.50;;;;;;;1.13;88.41;100875.02;5024659;58;1136601;-89
2021/01/04 08:41:03;;;;;;;22.83;11.03;;;;;;;1.16;88.35;100878.83;5002764;58;1139315;-89
2021/01/04 08:46:30;;;;;;;23.57;12.93;;;;;;;1.19;88.35;100878.73;5038840;58;1136624;-89
2021/01/04 08:51:41;;;;;;;24.53;14.67;;;;;;;1.22;88.52;100891.66;5002994;58;1138526;-89
2021/01/04 08:57:09;;;;;;;18.70;11.63;;;;;;;1.21;88.30;100896.02;5090140;57;1138552;-89
2021/01/04 09:02:37;;;;;;;21.17;11.53;;;;;;;1.24;88.43;100897.64;5081761;57;1138698;-89
2021/01/04 09:07:53;;;;;;;17.20;10.07;;;;;;;1.24;88.35;100889.83;5117079;57;1138368;-89
2021/01/04 09:13:08;;;;;;;17.90;9.83;;;;;;;1.24;88.34;100876.35;5211600;54;1138311;-87
2021/01/04 09:18:46;;;;;;;15.77;9.20;;;;;;;1.29;88.36;100882.72;5293153;54;1136593;-88
2021/01/04 09:23:52;;;;;;;17.23;10.58;;;;;;;1.34;88.36;100882.13;5266616;54;1136466;-89
2021/01/04 09:29:18;;;;;;;17.30;10.07;;;;;;;1.36;88.33;100885.53;5250080;54;1138518;-88
2021/01/04 09:34:26;;;;;;;17.47;9.37;;;;;;;1.40;88.31;100881.45;5240399;54;1138402;-89
2021/01/04 09:39:36;;;;;;;18.67;10.70;;;;;;;1.36;88.22;100881.63;5248542;54;1136327;-89
2021/01/04 09:44:42;;;;;;;16.23;9.43;;;;;;;1.35;88.27;100880.77;5247892;54;1138397;-89
2021/01/04 09:49:51;;;;;;;14.23;7.90;;;;;;;1.38;88.11;100887.61;5251071;54;1136331;-88
2021/01/04 09:55:04;;;;;;;19.10;11.22;;;;;;;1.36;88.03;100885.53;5243976;54;1136647;-88
2021/01/04 10:00:26;;;;;;;22.52;12.43;;;;;;;1.36;88.14;100887.69;5266156;54;1138387;-89
2021/01/04 10:05:42;;;;;;;22.20;12.13;;;;;;;1.35;88.32;100882.08;5299909;54;1139173;-87
2021/01/04 10:11:03;;;;;;;24.60;15.55;;;;;;;1.36;88.11;100880.32;5298926;54;1138403;-88
2021/01/04 10:16:15;;;;;;;28.03;9.67;;;;;;;1.40;88.26;100885.80;5280622;54;1138454;-88
2021/01/04 10:21:28;;;;;;;16.63;9.73;;;;;;;1.39;88.27;100881.05;5310776;54;1136679;-88
2021/01/04 10:26:43;;;;;;;19.55;10.93;;;;;;;1.46;88.24;100875.63;5334160;54;1136320;-88
2021/01/04 10:31:56;;;;;;;21.20;12.17;;;;;;;1.42;88.22;100882.70;5299404;54;1140684;-89
2021/01/04 10:37:07;;;;;;;14.23;8.03;;;;;;;1.41;88.11;100884.45;5288966;54;1138691;-88
2021/01/04 10:42:22;;;;;;;22.73;12.90;;;;;;;1.45;88.13;100883.91;5289989;54;1136282;-88
2021/01/04 10:47:49;;;;;;;22.40;11.13;;;;;;;1.44;88.11;100885.26;5288985;54;1138230;-88
2021/01/04 10:52:58;;;;;;;18.17;9.70;;;;;;;1.47;88.04;100890.37;5294236;54;1138232;-88
2021/01/04 10:58:35;;;;;;;17.33;10.63;;;;;;;1.50;88.12;100889.82;5310261;54;1136355;-89
2021/01/04 11:03:55;;;;;;;;;;;;;;;1.48;88.05;100895.98;5297017;54;1138226;-88
2021/01/04 11:09:13;;;;;;;22.43;11.50;;;;;;;1.51;87.98;100893.28;5309707;54;971510;-88
2021/01/04 11:14:24;;;;;;;19.63;9.70;;;;;;;1.48;88.06;100895.98;5293860;54;1136180;-87
2021/01/04 11:19:34;;;;;;;13.57;6.50;;;;;;;1.45;88.01;100888.27;5290682;54;1136335;-88
2021/01/04 11:24:40;;;;;;;13.07;6.43;;;;;;;1.45;88.00;100889.11;5313429;54;1136901;-87
2021/01/04 11:29:46;;;;;;;22.90;11.57;;;;;;;1.46;87.97;100877.79;5291766;54;1136636;-87
2021/01/04 11:34:59;;;;;;;19.43;8.20;;;;;;;1.44;88.14;100873.53;5317761;55;1138740;-88
2021/01/04 11:40:03;;;;;;;54.40;24.47;;;;;;;1.48;87.96;100866.02;5288785;54;1136639;-87
2021/01/04 11:45:15;;;;;;;31.17;12.73;;;;;;;1.49;88.06;100868.57;5309627;54;1138386;-88
2021/01/04 11:50:20;;;;;;;24.07;11.33;;;;;;;1.52;88.10;100857.19;5289441;54;1138381;-87
2021/01/04 11:55:26;;;;;;;29.47;11.80;;;;;;;1.53;87.98;100849.29;5295810;54;1138658;-88
2021/01/04 12:00:32;;;;;;;28.47;11.83;;;;;;;1.59;88.02;100849.09;5287103;54;1138418;-89
2021/01/04 12:05:38;;;;;;;33.90;16.43;;;;;;;1.57;87.96;100834.40;5303247;54;1138304;-88
2021/01/04 12:10:43;;;;;;;27.67;12.18;;;;;;;1.52;87.87;100841.09;5277489;54;1138793;-88
2021/01/04 12:15:49;;;;;;;19.27;10.03;;;;;;;1.52;87.80;100839.80;5284771;55;1138656;-86
2021/01/04 12:20:55;;;;;;;27.55;12.33;;;;;;;1.54;87.89;100843.63;5281282;55;1138607;-87
2021/01/04 12:26:01;;;;;;;27.83;13.80;;;;;;;1.50;87.86;100838.14;5285798;54;1138392;-88
2021/01/04 12:31:12;;;;;;;16.47;8.13;;;;;;;1.54;88.02;100841.02;5300347;55;1138245;-87
2021/01/04 12:36:21;;;;;;;26.20;12.67;;;;;;;1.53;87.88;100842.77;5282581;55;1136139;-87
2021/01/04 12:41:27;;;;;;;28.53;14.63;;;;;;;1.55;87.90;100844.88;5346101;55;1138103;-88
2021/01/04 12:46:33;;;;;;;28.90;12.73;;;;;;;1.58;87.73;100854.34;5281750;54;1138359;-88
2021/01/04 12:51:38;;;;;;;45.90;20.50;;;;;;;1.56;87.82;100853.09;5281525;54;1138665;-88
2021/01/04 12:56:51;;;;;;;39.93;19.33;;;;;;;1.52;87.68;100855.89;5295699;54;1138881;-88
2021/01/04 13:01:58;;;;;;;41.00;19.90;;;;;;;1.50;87.73;100861.15;5279014;54;1138576;-89
2021/01/04 13:07:03;;;;;;;40.07;19.30;;;;;;;1.49;87.83;100862.05;5301222;55;1138239;-88
2021/01/04 13:12:09;;;;;;;50.37;25.33;;;;;;;1.49;87.76;100857.29;5287846;55;1138653;-88
2021/01/04 13:17:16;;;;;;;48.70;23.13;;;;;;;1.49;87.67;100862.50;5316347;55;1138196;-88
2021/01/04 13:22:21;;;;;;;93.40;45.07;;;;;;;1.51;87.86;100864.61;5274325;54;1138844;-88
2021/01/04 13:27:42;;;;;;;47.20;22.53;;;;;;;1.47;87.79;100861.70;5284129;54;1138697;-88
2021/01/04 13:32:51;;;;;;;41.28;19.85;;;;;;;1.45;87.67;100855.69;5164896;55;1138876;-89
2021/01/04 13:38:20;;;;;;;41.07;15.80;;;;;;;1.45;87.79;100856.99;5148312;55;1138600;-88
2021/01/04 13:43:33;;;;;;;;;;;;;;;;;;;;;
2021/01/04 13:48:31;;;;;;;44.88;22.65;;;;;;;1.42;87.81;100859.25;5145512;55;1138592;-87
2021/01/04 13:53:37;;;;;;;37.00;15.57;;;;;;;1.40;87.93;100877.98;5235621;55;1138217;-87
2021/01/04 13:58:47;;;;;;;47.23;18.57;;;;;;;1.35;87.73;100873.41;5130459;55;1139020;-90
2021/01/04 14:03:57;;;;;;;54.17;28.77;;;;;;;1.31;87.79;100875.70;5127242;55;1138341;-88
2021/01/04 14:09:02;;;;;;;83.03;37.67;;;;;;;1.26;88.04;100872.39;5157018;56;1138439;-87
2021/01/04 14:14:11;;;;;;;56.87;23.67;;;;;;;1.29;88.06;100871.84;5132525;56;1138640;-87
2021/01/04 14:19:18;;;;;;;27.05;10.80;;;;;;;1.28;87.96;100874.05;5200174;56;1138347;-86
2021/01/04 14:24:28;;;;;;;40.17;17.47;;;;;;;1.27;88.00;100874.95;5153371;56;1138618;-88
2021/01/04 14:29:39;;;;;;;50.25;22.07;;;;;;;1.25;88.13;100879.81;5172625;54;1138569;-87
2021/01/04 14:34:46;;;;;;;34.83;14.77;;;;;;;1.25;88.40;100880.66;5231565;54;1138770;-89
2021/01/04 14:40:05;;;;;;;75.37;38.17;;;;;;;1.23;88.12;100867.28;5204063;54;1138685;-87
2021/01/04 14:45:11;;;;;;;51.00;24.43;;;;;;;1.31;88.08;100886.12;5228183;55;1138776;-88
2021/01/04 14:50:18;;;;;;;64.70;26.50;;;;;;;1.30;88.28;100888.33;5253869;54;1138419;-87
2021/01/04 14:55:25;;;;;;;45.03;17.47;;;;;;;1.29;88.11;100891.39;5240708;55;1138290;-87
2021/01/04 15:00:31;;;;;;;35.07;17.63;;;;;;;1.33;88.09;100891.70;5237147;55;1138799;-87
2021/01/04 15:05:37;;;;;;;18.00;8.67;;;;;;;1.34;87.96;100892.09;5271536;54;1138587;-88
2021/01/04 15:10:42;;;;;;;25.90;11.57;;;;;;;1.29;87.84;100887.93;5295700;55;1136437;-87
2021/01/04 15:15:49;;;;;;;27.93;12.53;;;;;;;1.26;87.86;100885.42;5278175;55;1138714;-88
2021/01/04 15:20:54;;;;;;;31.13;12.30;;;;;;;1.20;87.92;100881.28;5306791;55;1138703;-88
2021/01/04 15:26:00;;;;;;;23.83;11.53;;;;;;;1.18;87.85;100877.87;5280233;54;1138300;-87
2021/01/04 15:31:08;;;;;;;44.57;25.43;;;;;;;1.09;88.17;100875.56;5277277;54;1138692;-88
2021/01/04 15:36:13;;;;;;;16.03;6.83;;;;;;;1.05;88.12;100879.19;5278289;55;1138492;-88
2021/01/04 15:41:19;;;;;;;35.20;16.70;;;;;;;0.97;88.16;100874.66;5303505;55;1136444;-88
2021/01/04 15:46:25;;;;;;;27.17;12.87;;;;;;;0.96;88.32;100871.66;5284807;55;1138486;-87
2021/01/04 15:51:30;;;;;;;32.13;16.17;;;;;;;1.00;88.38;100869.36;5324154;55;1138306;-88
2021/01/04 15:56:36;;;;;;;38.33;18.20;;;;;;;0.96;88.32;100856.88;5282288;55;1138732;-87
2021/01/04 16:01:44;;;;;;;38.23;17.87;;;;;;;0.97;88.18;100853.38;5275317;55;1138760;-88
2021/01/04 16:06:57;;;;;;;20.50;11.03;;;;;;;1.01;88.24;100865.41;5298906;54;1138639;-88
2021/01/04 16:12:10;;;;;;;43.47;18.50;;;;;;;1.01;88.14;100877.13;5275739;55;1138472;-87
2021/01/04 16:17:16;;;;;;;16.17;7.53;;;;;;;1.03;88.32;100877.08;5307412;54;1138311;-88
2021/01/04 16:22:21;;;;;;;40.90;17.47;;;;;;;1.02;88.14;100878.83;5385306;55;21321;-87
2021/01/04 16:27:27;;;;;;;41.80;18.60;;;;;;;0.98;87.96;100886.78;5335731;55;1134432;-87
2021/01/04 16:32:34;;;;;;;21.83;10.20;;;;;;;0.97;88.34;100879.42;5276646;55;1138480;-87
2021/01/04 16:37:43;;;;;;;32.00;14.30;;;;;;;0.97;88.32;100875.97;5259496;55;1138209;-87
2021/01/04 16:42:48;;;;;;;31.00;13.03;;;;;;;0.98;88.12;100884.18;5282005;55;1138584;-87
2021/01/04 16:47:54;;;;;;;38.13;16.83;;;;;;;0.97;87.96;100892.44;5300190;54;1138294;-88
2021/01/04 16:52:59;;;;;;;31.48;15.35;;;;;;;0.95;88.05;100905.11;5273128;54;1138355;-87
2021/01/04 16:58:05;;;;;;;41.67;19.27;;;;;;;0.92;88.14;100903.89;5292317;55;1138202;-87
2021/01/04 17:03:11;;;;;;;39.03;17.97;;;;;;;0.98;88.30;100899.80;5275945;54;1138504;-86
2021/01/04 17:08:17;;;;;;;26.63;11.90;;;;;;;1.05;88.18;100895.67;5274356;54;1138728;-86
2021/01/04 17:13:23;;;;;;;34.43;15.63;;;;;;;0.99;88.03;100910.17;5257774;54;1138208;-87
2021/01/04 17:18:29;;;;;;;21.90;9.47;;;;;;;0.96;88.00;100915.48;5237040;54;1138432;-87
2021/01/04 17:23:39;;;;;;;39.50;17.17;;;;;;;1.00;88.12;100907.97;5238215;54;1136254;-87
2021/01/04 17:28:47;;;;;;;48.17;21.00;;;;;;;0.96;88.05;100907.66;5239424;54;1138293;-87
2021/01/04 17:33:52;;;;;;;35.13;14.53;;;;;;;0.94;87.96;100914.67;5236124;55;1138557;-87
2021/01/04 17:38:59;;;;;;;39.40;17.50;;;;;;;0.94;88.00;100915.97;5256532;55;1138287;-88
2021/01/04 17:44:26;;;;;;;35.87;13.83;;;;;;;0.96;88.21;100930.25;5239640;55;1138751;-87
2021/01/04 17:49:32;;;;;;;37.90;17.77;;;;;;;0.97;88.03;100934.56;5038008;57;1138402;-87
2021/01/04 17:54:38;;;;;;;31.73;14.77;;;;;;;0.89;88.07;100932.66;5029628;57;1138181;-88
2021/01/04 17:59:45;;;;;;;38.33;18.33;;;;;;;0.90;88.04;100930.02;5033348;57;1138370;-87
2021/01/04 18:04:54;;;;;;;43.97;19.57;;;;;;;0.92;88.17;100929.48;5034090;57;1138476;-88
2021/01/04 18:10:00;;;;;;;43.33;18.00;;;;;;;0.90;88.35;100929.16;5015032;57;1138939;-87
2021/01/04 18:15:07;;;;;;;40.23;17.47;;;;;;;0.92;88.10;100920.82;5040666;57;1138820;-88
2021/01/04 18:20:14;;;;;;;39.63;19.33;;;;;;;0.95;88.04;100920.73;5031815;57;1138519;-88
2021/01/04 18:25:20;;;;;;;35.58;14.05;;;;;;;0.94;88.09;100919.88;5024431;57;1138245;-89
2021/01/04 18:30:26;;;;;;;38.80;18.17;;;;;;;0.93;88.00;100916.02;5032637;57;1138808;-87
2021/01/04 18:35:31;;;;;;;38.90;17.33;;;;;;;0.93;88.02;100918.63;5027537;57;1138703;-89
2021/01/04 18:40:37;;;;;;;45.17;20.67;;;;;;;0.95;88.09;100913.77;5021663;57;1138726;-88
2021/01/04 18:45:43;;;;;;;66.73;26.63;;;;;;;0.92;88.07;100918.22;5052538;57;1138230;-88
2021/01/04 18:50:49;;;;;;;41.84;18.64;;;;;;;0.94;88.17;100927.69;4991296;58;1138562;-88
2021/01/04 18:55:55;;;;;;;23.80;9.90;;;;;;;0.91;88.12;100923.91;5018747;58;1138633;-88
2021/01/04 19:01:01;;;;;;;116.07;42.30;;;;;;;0.94;88.14;100928.14;4980110;58;1136222;-87
2021/01/04 19:06:07;;;;;;;45.60;17.67;;;;;;;0.92;88.12;100941.20;5006543;58;1140520;-89
2021/01/04 19:11:13;;;;;;;29.43;12.37;;;;;;;0.93;88.01;100945.52;4964783;58;1138511;-88
2021/01/04 19:16:19;;;;;;;26.37;11.87;;;;;;;0.92;88.08;100946.86;4996228;58;1138445;-88
2021/01/04 19:21:30;;;;;;;55.20;27.10;;;;;;;0.88;88.13;100947.43;4968192;58;1138415;-88
2021/01/04 19:26:39;;;;;;;51.40;23.62;;;;;;;0.86;88.07;100953.13;4967309;58;1138287;-88
2021/01/04 19:31:58;;;;;;;34.87;17.57;;;;;;;0.85;88.15;100957.08;4980405;57;1138479;-87
2021/01/04 19:37:09;;;;;;;31.48;15.78;;;;;;;0.85;88.30;100955.33;4976874;58;1138851;-88
2021/01/04 19:42:19;;;;;;;31.00;13.70;;;;;;;0.88;88.25;100959.59;4961048;58;1138863;-87
2021/01/04 19:47:24;;;;;;;45.67;18.80;;;;;;;0.87;88.17;100965.25;4981517;58;1138234;-88
2021/01/04 19:52:30;;;;;;;41.43;18.00;;;;;;;0.86;88.15;100961.39;4913757;58;1138442;-88
2021/01/04 19:57:35;;;;;;;70.80;35.57;;;;;;;0.81;88.06;100963.27;4903523;58;1138242;-88
2021/01/04 20:02:41;;;;;;;19.90;9.93;;;;;;;0.77;88.28;100964.25;4925727;58;1138355;-87
2021/01/04 20:07:47;;;;;;;56.10;24.67;;;;;;;0.79;88.28;100958.11;4830663;59;1136646;-88
2021/01/04 20:12:54;;;;;;;52.90;23.43;;;;;;;0.80;88.29;100958.52;4983213;58;1136448;-87
2021/01/04 20:18:00;;;;;;;51.85;21.77;;;;;;;0.85;88.28;100963.14;4942937;58;1138656;-88
2021/01/04 20:23:06;;;;;;;44.83;19.70;;;;;;;0.85;88.33;100960.54;4955000;57;1138695;-88
2021/01/04 20:28:11;;;;;;;43.92;17.85;;;;;;;0.88;88.19;100952.64;5048814;58;1138533;-88
2021/01/04 20:33:17;;;;;;;47.33;22.30;;;;;;;0.89;88.07;100949.14;4987015;57;1138339;-87
2021/01/04 20:38:23;;;;;;;46.00;21.67;;;;;;;0.88;88.25;100951.78;4987480;58;1138422;-87
2021/01/04 20:43:28;;;;;;;45.87;18.03;;;;;;;0.90;88.12;100951.30;5027319;58;1138156;-87
2021/01/04 20:48:34;;;;;;;64.63;27.03;;;;;;;0.87;87.98;100950.93;5027655;58;1138406;-87
2021/01/04 20:53:40;;;;;;;81.47;32.97;;;;;;;0.86;88.19;100945.77;4814179;58;1138297;-87
2021/01/04 20:58:46;;;;;;;116.33;39.77;;;;;;;0.90;88.05;100949.99;4897004;58;1138286;-87
2021/01/04 21:03:53;;;;;;;41.63;19.10;;;;;;;0.86;88.09;100950.97;4912181;59;1140286;-87
2021/01/04 21:08:59;;;;;;;48.77;23.17;;;;;;;0.83;88.09;100946.71;4952401;57;1138336;-87
2021/01/04 21:14:06;;;;;;;24.67;10.93;;;;;;;0.82;88.11;100949.36;4975380;57;1138797;-88
2021/01/04 21:19:13;;;;;;;38.73;14.47;;;;;;;0.79;88.04;100930.77;4937558;58;1138372;-87
2021/01/04 21:24:20;;;;;;;36.17;15.45;;;;;;;0.80;88.17;100931.63;4939906;58;1138358;-87
2021/01/04 21:29:25;;;;;;;51.55;20.12;;;;;;;0.78;88.16;100928.21;4923518;58;1138709;-87
2021/01/04 21:34:31;;;;;;;45.43;16.40;;;;;;;0.79;88.19;100915.59;4979589;58;1138269;-87
2021/01/04 21:39:37;;;;;;;55.90;20.70;;;;;;;0.83;88.21;100915.47;4947306;58;1138504;-87
2021/01/04 21:44:43;;;;;;;45.50;19.23;;;;;;;0.85;88.32;100910.21;4941227;58;1138681;-87
2021/01/04 21:49:48;;;;;;;22.80;9.33;;;;;;;0.84;88.21;100913.27;4952515;57;1138487;-87
2021/01/04 21:54:55;;;;;;;40.57;17.43;;;;;;;0.85;88.09;100923.23;4941443;58;1136722;-89
2021/01/04 22:00:02;;;;;;;26.12;9.08;;;;;;;0.84;88.11;100929.34;4942169;58;1138257;-88
2021/01/04 22:05:11;;;;;;;48.83;21.43;;;;;;;0.81;88.14;100922.47;4920513;58;1136575;-88
2021/01/04 22:10:17;;;;;;;42.10;17.27;;;;;;;0.81;88.05;100904.24;4915951;58;1138326;-87
2021/01/04 22:15:22;;;;;;;59.70;22.20;;;;;;;0.82;88.11;100924.17;4964714;58;1138136;-87
2021/01/04 22:20:29;;;;;;;71.90;29.70;;;;;;;0.83;88.25;100922.42;4965642;58;1138436;-87
2021/01/04 22:25:34;;;;;;;52.43;20.17;;;;;;;0.84;88.10;100926.73;4920028;58;1138565;-87
2021/01/04 22:30:40;;;;;;;56.20;24.50;;;;;;;0.83;87.82;100921.98;4918064;58;1138769;-87
2021/01/04 22:35:45;;;;;;;28.63;10.67;;;;;;;0.79;87.91;100928.62;4938551;58;1138376;-87
2021/01/04 22:40:53;;;;;;;44.40;17.52;;;;;;;0.79;88.15;100933.83;4914595;58;1138836;-87
2021/01/04 22:46:00;;;;;;;25.87;10.17;;;;;;;0.76;87.92;100923.53;4903601;58;1138669;-88
2021/01/04 22:51:08;;;;;;;44.67;20.93;;;;;;;0.75;87.91;100917.47;4972516;58;1138213;-88
2021/01/04 22:56:17;;;;;;;50.98;20.65;;;;;;;0.67;88.02;100916.39;4931949;58;1138633;-88
2021/01/04 23:01:24;;;;;;;38.67;15.27;;;;;;;0.72;88.07;100920.61;4936864;58;1138292;-87
2021/01/04 23:06:33;;;;;;;57.87;20.20;;;;;;;0.73;88.15;100899.74;4920149;58;1138312;-87
2021/01/04 23:11:40;;;;;;;56.97;22.03;;;;;;;0.73;88.15;100899.74;4939841;58;1138323;-87
2021/01/04 23:16:46;;;;;;;47.67;20.17;;;;;;;0.77;88.05;100888.31;5013472;59;21201;-87
2021/01/04 23:21:53;;;;;;;46.47;20.20;;;;;;;0.81;88.04;100899.48;4925537;58;1134375;-87
2021/01/04 23:27:06;;;;;;;47.67;19.90;;;;;;;0.83;88.13;100898.99;4934743;58;1138252;-87
2021/01/04 23:32:19;;;;;;;27.07;10.78;;;;;;;0.80;88.02;100898.63;4920056;58;1138499;-87